Time;durP1;ratioP1;P1;durP2;ratioP2;P2;SDS_P1;SDS_P2;PMS_P1;PMS_P2;Temp;Humidity;BMP_temperature;BMP_pressure;BME280_temperature;BME280_humidity;BME280_pressure;Samples;Min_cycle;Max_cycle;Signal;HPM_P1;HPM_P2
2024/01/18 00:00:49;;;;;;;45.50;20.83;;;;;;;;;;5061344;28;20455;-71
2024/01/18 00:03:16;;;;;;;43.40;21.03;;;;;;;;;;5096363;28;20416;-71
2024/01/18 00:05:42;;;;;;;46.63;21.63;;;;;;;;;;5096291;28;20423;-71
2024/01/18 00:08:09;;;;;;;41.10;20.50;;;;;;;;;;5095905;28;20420;-71
2024/01/18 00:10:36;;;;;;;47.30;21.87;;;;;;;;;;5078836;28;20455;-71
2024/01/18 00:13:02;;;;;;;39.07;20.20;;;;;;;;;;5096637;28;20517;-71
2024/01/18 00:15:29;;;;;;;43.93;20.90;;;;;;;;;;5078286;28;20469;-71
2024/01/18 00:17:56;;;;;;;42.77;20.20;;;;;;;;;;5077876;28;20813;-71
2024/01/18 00:20:24;;;;;;;39.93;19.60;;;;;;;;;;5061208;28;20532;-71
2024/01/18 00:22:50;;;;;;;42.63;19.83;;;;;;;;;;5095632;28;20910;-71
2024/01/18 00:25:19;;;;;;;44.07;20.43;;;;;;;;;;5095631;28;20902;-71
2024/01/18 00:27:45;;;;;;;45.47;21.23;;;;;;;;;;5077949;28;20435;-71
2024/01/18 00:30:12;;;;;;;40.33;19.97;;;;;;;;;;5095482;28;20917;-71
2024/01/18 00:32:39;;;;;;;36.73;19.53;;;;;;;;;;5095404;28;20431;-71
2024/01/18 00:35:06;;;;;;;44.70;20.40;;;;;;;;;;5077601;28;20488;-70
2024/01/18 00:37:33;;;;;;;40.27;19.87;;;;;;;;;;5077411;28;20836;-71
2024/01/18 00:40:00;;;;;;;44.60;20.53;;;;;;;;;;5060824;28;20455;-70
2024/01/18 00:42:26;;;;;;;43.77;20.00;;;;;;;;;;5095560;28;20457;-71
2024/01/18 00:45:10;;;;;;;43.87;21.07;;;;;;;;;;5095214;28;20387;-71
2024/01/18 00:47:37;;;;;;;41.23;21.30;;;;;;;;;;5077350;28;20476;-71
2024/01/18 00:50:04;;;;;;;41.03;19.97;;;;;;;;;;5095174;28;20484;-71
2024/01/18 00:52:30;;;;;;;41.73;20.53;;;;;;;;;;5095384;28;20426;-71
2024/01/18 00:54:57;;;;;;;42.37;21.07;;;;;;;;;;5095630;28;20481;-71
2024/01/18 00:57:23;;;;;;;40.47;20.90;;;;;;;;;;5077107;28;20825;-71
2024/01/18 00:59:51;;;;;;;42.50;21.33;;;;;;;;;;5077281;28;20463;-71
2024/01/18 01:02:17;;;;;;;42.37;20.67;;;;;;;;;;5076951;28;20506;-71
2024/01/18 01:04:44;;;;;;;48.67;21.60;;;;;;;;;;5077163;28;20513;-71
2024/01/18 01:07:11;;;;;;;47.40;20.40;;;;;;;;;;5077937;28;20424;-71
2024/01/18 01:09:37;;;;;;;45.97;20.63;;;;;;;;;;5077134;28;20424;-71
2024/01/18 01:12:04;;;;;;;39.27;19.87;;;;;;;;;;5093464;28;20421;-71
2024/01/18 01:51:22;;;;;;;37.10;19.37;;;;;;;;;;5094128;28;20438;-71
2024/01/18 01:53:49;;;;;;;41.73;20.63;;;;;;;;;;5059674;28;20435;-70
2024/01/18 01:56:16;;;;;;;43.33;20.67;;;;;;;;;;5042944;28;20434;-70
2024/01/18 01:58:42;;;;;;;45.23;21.43;;;;;;;;;;5076360;28;20530;-71
2024/01/18 02:01:09;;;;;;;40.13;20.53;;;;;;;;;;5094242;28;20546;-71
2024/01/18 02:03:36;;;;;;;43.37;20.97;;;;;;;;;;5075786;28;20547;-70
2024/01/18 02:06:03;;;;;;;38.97;20.30;;;;;;;;;;5076873;28;20510;-71
2024/01/18 02:08:30;;;;;;;46.90;21.40;;;;;;;;;;5076728;28;20905;-71
2024/01/18 02:11:14;;;;;;;44.70;22.10;;;;;;;;;;5061758;28;20412;-70
2024/01/18 02:13:41;;;;;;;42.87;21.03;;;;;;;;;;5075825;28;20452;-70
2024/01/18 02:16:25;;;;;;;40.67;20.37;;;;;;;;;;5094044;28;20400;-71
2024/01/18 02:18:51;;;;;;;40.37;20.13;;;;;;;;;;5059157;28;20434;-71
2024/01/18 02:21:36;;;;;;;40.33;20.17;;;;;;;;;;5093926;28;20473;-71
2024/01/18 02:24:11;;;;;;;40.43;21.37;;;;;;;;;;5093733;28;20420;-69
2024/01/18 02:26:38;;;;;;;40.83;20.17;;;;;;;;;;5060120;28;20483;-71
2024/01/18 02:29:05;;;;;;;44.33;21.80;;;;;;;;;;5093211;28;20428;-71
2024/01/18 02:31:31;;;;;;;42.73;20.63;;;;;;;;;;5075559;28;20450;-71
2024/01/18 02:34:16;;;;;;;43.40;19.73;;;;;;;;;;5061639;28;20400;-71
2024/01/18 02:36:43;;;;;;;42.47;20.80;;;;;;;;;;5059269;28;20419;-70
2024/01/18 02:39:28;;;;;;;41.57;20.40;;;;;;;;;;5078346;28;20470;-70
2024/01/18 02:41:55;;;;;;;39.80;19.83;;;;;;;;;;5075420;28;20451;-71
2024/01/18 02:44:23;;;;;;;43.00;20.10;;;;;;;;;;5059029;28;20439;-70
2024/01/18 02:46:50;;;;;;;42.43;20.13;;;;;;;;;;5058997;28;20426;-71
2024/01/18 02:49:16;;;;;;;42.23;20.47;;;;;;;;;;5076016;28;20767;-71
2024/01/18 02:51:44;;;;;;;40.40;19.73;;;;;;;;;;5075446;28;20435;-71
2024/01/18 02:54:11;;;;;;;39.73;19.40;;;;;;;;;;5093259;28;20419;-71
2024/01/18 02:56:37;;;;;;;42.37;19.50;;;;;;;;;;5093260;28;20426;-71
2024/01/18 02:59:04;;;;;;;41.10;19.87;;;;;;;;;;5093818;28;20496;-70
2024/01/18 03:01:31;;;;;;;41.80;20.13;;;;;;;;;;5058776;28;20471;-70
2024/01/18 03:03:58;;;;;;;42.60;20.63;;;;;;;;;;5075216;28;20431;-70
2024/01/18 03:06:25;;;;;;;39.80;19.37;;;;;;;;;;5093451;28;20412;-71
2024/01/18 03:08:51;;;;;;;40.83;19.43;;;;;;;;;;5093194;28;20767;-71
2024/01/18 03:11:18;;;;;;;37.03;18.40;;;;;;;;;;5058631;28;20754;-70
2024/01/18 03:13:44;;;;;;;39.50;19.77;;;;;;;;;;5075402;28;20964;-71
2024/01/18 03:16:12;;;;;;;41.13;20.00;;;;;;;;;;5075126;28;20983;-71
2024/01/18 03:18:39;;;;;;;37.90;18.57;;;;;;;;;;5058728;28;20431;-71
2024/01/18 03:21:06;;;;;;;36.43;18.70;;;;;;;;;;5058856;28;20582;-71
2024/01/18 03:23:32;;;;;;;41.27;19.53;;;;;;;;;;5093040;28;20463;-71
2024/01/18 03:25:59;;;;;;;38.27;19.83;;;;;;;;;;5075212;28;20446;-71
2024/01/18 03:28:26;;;;;;;39.87;20.63;;;;;;;;;;5059433;28;20449;-71
2024/01/18 03:30:53;;;;;;;40.13;19.83;;;;;;;;;;5092987;28;20416;-71
2024/01/18 03:33:20;;;;;;;42.07;19.40;;;;;;;;;;5092968;28;20501;-70
2024/01/18 03:35:47;;;;;;;40.13;19.97;;;;;;;;;;5095733;28;20419;-71
2024/01/18 03:38:14;;;;;;;36.97;18.50;;;;;;;;;;5096479;28;20426;-71
2024/01/18 03:40:40;;;;;;;36.40;19.57;;;;;;;;;;5096615;28;20926;-71
2024/01/18 03:43:07;;;;;;;44.00;20.50;;;;;;;;;;5096962;28;20411;-71
2024/01/18 03:45:34;;;;;;;43.53;20.63;;;;;;;;;;5078669;28;20439;-71
2024/01/18 03:48:01;;;;;;;43.27;20.53;;;;;;;;;;5096652;28;20516;-71
2024/01/18 03:50:28;;;;;;;44.93;21.17;;;;;;;;;;5096163;28;20416;-71
2024/01/18 03:52:56;;;;;;;45.70;20.47;;;;;;;;;;5078814;28;20427;-71
2024/01/18 03:55:22;;;;;;;41.23;19.93;;;;;;;;;;5078474;28;20510;-71
2024/01/18 03:57:49;;;;;;;39.63;19.60;;;;;;;;;;5096412;28;20457;-71
2024/01/18 04:00:16;;;;;;;45.63;21.53;;;;;;;;;;5078279;28;20408;-71
2024/01/18 04:02:43;;;;;;;42.67;20.47;;;;;;;;;;5096098;28;20432;-73
2024/01/18 04:05:09;;;;;;;39.73;19.70;;;;;;;;;;5045062;28;20522;-72
2024/01/18 04:07:38;;;;;;;41.87;20.67;;;;;;;;;;5104229;28;20935;-80
2024/01/18 04:10:07;;;;;;;42.30;19.83;;;;;;;;;;5115936;28;20456;-78
2024/01/18 04:12:34;;;;;;;38.90;19.37;;;;;;;;;;5098509;28;20842;-70
2024/01/18 04:19:01;;;;;;;40.20;19.23;;;;;;;;;;5116206;28;20375;-80
2024/01/18 04:25:27;;;;;;;41.87;19.27;;;;;;;;;;5117529;28;20390;-79
2024/01/18 04:27:54;;;;;;;42.93;20.63;;;;;;;;;;5098259;28;20901;-78
2024/01/18 04:30:21;;;;;;;40.43;20.97;;;;;;;;;;5097987;28;20431;-82
2024/01/18 04:32:48;;;;;;;47.93;20.17;;;;;;;;;;5098011;28;20434;-79
2024/01/18 04:35:14;;;;;;;43.47;21.00;;;;;;;;;;5116146;28;20418;-79
2024/01/18 04:37:41;;;;;;;41.83;19.53;;;;;;;;;;5065674;28;20755;-78
2024/01/18 04:40:08;;;;;;;44.20;21.20;;;;;;;;;;5098220;28;20427;-79
2024/01/18 04:42:35;;;;;;;42.00;23.13;;;;;;;;;;5116410;28;20431;-77
2024/01/18 04:45:02;;;;;;;44.20;21.20;;;;;;;;;;5081409;28;20454;-80
2024/01/18 04:47:29;;;;;;;44.27;21.80;;;;;;;;;;5098070;28;20765;-82
2024/01/18 04:49:57;;;;;;;42.63;21.83;;;;;;;;;;5099014;28;20419;-80
2024/01/18 04:52:24;;;;;;;44.70;22.23;;;;;;;;;;5098193;28;20438;-79
2024/01/18 04:54:51;;;;;;;43.53;20.33;;;;;;;;;;5098420;28;20743;-79
2024/01/18 04:57:17;;;;;;;43.13;21.37;;;;;;;;;;5115900;28;20419;-77
2024/01/18 04:59:44;;;;;;;43.73;21.30;;;;;;;;;;5115823;28;20803;-76
2024/01/18 05:02:11;;;;;;;42.17;20.97;;;;;;;;;;5115677;28;20963;-77
2024/01/18 05:04:38;;;;;;;46.43;21.43;;;;;;;;;;5081164;28;20902;-79
2024/01/18 05:07:05;;;;;;;45.17;21.97;;;;;;;;;;5098214;28;20414;-79
2024/01/18 05:09:32;;;;;;;47.63;22.97;;;;;;;;;;5080583;28;20925;-77
2024/01/18 05:11:59;;;;;;;47.83;23.23;;;;;;;;;;5098029;28;20464;-76
2024/01/18 05:14:26;;;;;;;49.37;22.27;;;;;;;;;;5080620;28;20425;-76
2024/01/18 05:16:55;;;;;;;52.80;22.73;;;;;;;;;;5081794;28;20466;-79
2024/01/18 05:19:22;;;;;;;43.23;22.10;;;;;;;;;;5098897;28;20886;-82
2024/01/18 05:21:51;;;;;;;45.67;22.43;;;;;;;;;;5116504;28;20453;-78
2024/01/18 05:24:18;;;;;;;45.93;21.30;;;;;;;;;;5080761;28;20430;-79
2024/01/18 05:26:46;;;;;;;40.57;20.87;;;;;;;;;;5081436;28;20496;-78
2024/01/18 05:29:12;;;;;;;43.63;20.63;;;;;;;;;;5097366;28;20411;-73
2024/01/18 05:31:39;;;;;;;41.20;20.80;;;;;;;;;;5080086;28;20963;-79
2024/01/18 05:34:06;;;;;;;42.50;21.63;;;;;;;;;;5080447;28;20521;-78
2024/01/18 05:36:33;;;;;;;47.07;21.13;;;;;;;;;;5097051;28;20433;-77
2024/01/18 05:38:59;;;;;;;42.33;21.33;;;;;;;;;;5114747;28;20445;-76
2024/01/18 05:41:26;;;;;;;46.40;22.83;;;;;;;;;;5096967;28;20557;-70
2024/01/18 05:43:53;;;;;;;44.03;21.07;;;;;;;;;;5114668;28;20473;-71
2024/01/18 05:46:22;;;;;;;50.40;22.10;;;;;;;;;;5115149;28;20808;-71
2024/01/18 05:48:49;;;;;;;41.03;20.93;;;;;;;;;;5096429;28;20414;-70
2024/01/18 05:51:16;;;;;;;38.10;20.40;;;;;;;;;;5079681;28;20450;-71
2024/01/18 05:53:43;;;;;;;36.47;19.40;;;;;;;;;;5115033;28;20414;-70
2024/01/18 05:56:09;;;;;;;41.70;19.90;;;;;;;;;;5079839;28;20410;-70
2024/01/18 05:58:36;;;;;;;37.13;19.17;;;;;;;;;;5079583;28;20453;-70
2024/01/18 06:01:05;;;;;;;38.60;19.10;;;;;;;;;;5097486;28;20458;-71
2024/01/18 06:03:32;;;;;;;37.20;19.30;;;;;;;;;;5096329;28;20879;-78
2024/01/18 06:05:59;;;;;;;40.70;19.70;;;;;;;;;;5079742;28;20487;-79
2024/01/18 06:08:26;;;;;;;40.70;19.57;;;;;;;;;;5114852;28;20538;-76
2024/01/18 06:10:53;;;;;;;35.13;18.30;;;;;;;;;;5114726;28;20487;-78
2024/01/18 06:13:20;;;;;;;37.77;19.97;;;;;;;;;;5062907;28;20455;-77
2024/01/18 06:15:47;;;;;;;37.27;19.10;;;;;;;;;;5096088;28;20978;-71
2024/01/18 06:18:14;;;;;;;36.33;18.80;;;;;;;;;;5096258;28;20419;-72
2024/01/18 06:20:41;;;;;;;37.33;18.03;;;;;;;;;;5096130;28;20762;-72
2024/01/18 06:23:08;;;;;;;37.83;18.80;;;;;;;;;;5079339;28;20414;-72
2024/01/18 06:25:35;;;;;;;36.37;18.17;;;;;;;;;;5114039;28;20434;-72
2024/01/18 06:28:03;;;;;;;34.40;17.73;;;;;;;;;;5062774;28;20483;-72
2024/01/18 06:30:30;;;;;;;35.57;18.13;;;;;;;;;;5096187;28;20425;-72
2024/01/18 06:32:57;;;;;;;34.30;17.77;;;;;;;;;;5096255;28;20537;-72
2024/01/18 06:35:24;;;;;;;37.33;18.90;;;;;;;;;;5079676;28;20441;-68
2024/01/18 06:37:51;;;;;;;38.20;18.50;;;;;;;;;;5095850;28;20430;-75
2024/01/18 06:40:18;;;;;;;36.00;18.07;;;;;;;;;;5079345;28;20430;-79
2024/01/18 06:42:45;;;;;;;34.07;18.10;;;;;;;;;;5079161;28;20465;-78
2024/01/18 06:45:12;;;;;;;37.07;18.53;;;;;;;;;;5114141;28;20422;-77
2024/01/18 06:47:39;;;;;;;36.93;19.23;;;;;;;;;;5096122;28;20407;-75
2024/01/18 06:50:07;;;;;;;35.60;17.97;;;;;;;;;;5079568;28;20495;-73
2024/01/18 06:52:35;;;;;;;42.27;19.30;;;;;;;;;;5095802;28;20464;-70
2024/01/18 06:55:01;;;;;;;42.83;20.77;;;;;;;;;;5096265;28;20433;-71
2024/01/18 06:57:46;;;;;;;47.30;22.23;;;;;;;;;;5099103;28;20878;-70
2024/01/18 07:00:16;;;;;;;46.40;22.83;;;;;;;;;;5067367;28;20431;-71
2024/01/18 07:02:43;;;;;;;52.17;24.70;;;;;;;;;;5038888;28;20456;-71
2024/01/18 07:05:09;;;;;;;44.67;23.30;;;;;;;;;;5055653;28;20418;-70
2024/01/18 07:07:36;;;;;;;43.23;21.67;;;;;;;;;;5073345;28;21010;-70
2024/01/18 07:10:03;;;;;;;56.57;25.87;;;;;;;;;;5058388;28;20416;-70
2024/01/18 07:12:30;;;;;;;50.00;23.97;;;;;;;;;;5042549;28;20507;-70
2024/01/18 07:14:56;;;;;;;47.70;23.80;;;;;;;;;;5060260;28;20420;-70
2024/01/18 07:17:23;;;;;;;45.10;22.40;;;;;;;;;;5060001;28;20439;-70
2024/01/18 07:19:49;;;;;;;47.13;22.13;;;;;;;;;;5043171;28;20443;-70
2024/01/18 07:22:16;;;;;;;42.50;20.73;;;;;;;;;;5059592;28;20482;-69
2024/01/18 07:24:43;;;;;;;48.53;21.83;;;;;;;;;;5076741;28;20461;-70
2024/01/18 07:27:10;;;;;;;47.67;22.37;;;;;;;;;;5058913;28;20534;-69
2024/01/18 07:29:37;;;;;;;52.73;23.50;;;;;;;;;;5058835;28;20470;-70
2024/01/18 07:32:03;;;;;;;56.83;24.27;;;;;;;;;;5076649;28;20880;-71
2024/01/18 07:34:33;;;;;;;53.53;24.27;;;;;;;;;;5078800;28;20431;-71
2024/01/18 07:37:00;;;;;;;52.90;23.87;;;;;;;;;;5062266;28;20419;-71
2024/01/18 07:39:30;;;;;;;45.80;22.77;;;;;;;;;;5054815;28;20436;-71
2024/01/18 07:41:57;;;;;;;49.67;23.33;;;;;;;;;;5059591;28;20998;-71
2024/01/18 07:44:24;;;;;;;48.50;23.10;;;;;;;;;;5042143;28;20420;-70
2024/01/18 07:46:51;;;;;;;46.33;22.03;;;;;;;;;;5076284;28;20423;-70
2024/01/18 07:49:17;;;;;;;42.27;22.23;;;;;;;;;;5058445;28;20444;-70
2024/01/18 07:51:44;;;;;;;48.90;23.13;;;;;;;;;;5058431;28;20433;-70
2024/01/18 07:54:11;;;;;;;46.57;21.97;;;;;;;;;;5076698;28;20413;-71
2024/01/18 07:56:38;;;;;;;40.63;20.67;;;;;;;;;;5057395;28;20971;-71
2024/01/18 07:59:05;;;;;;;45.93;22.40;;;;;;;;;;5058843;28;20431;-71
2024/01/18 08:05:33;;;;;;;43.67;21.27;;;;;;;;;;5076081;28;20870;-70
2024/01/18 08:07:59;;;;;;;57.93;25.40;;;;;;;;;;5058164;28;20436;-71
2024/01/18 08:10:26;;;;;;;49.50;23.40;;;;;;;;;;5058134;28;21081;-71
2024/01/18 08:12:53;;;;;;;52.67;23.97;;;;;;;;;;5041528;28;20474;-71
2024/01/18 08:15:21;;;;;;;44.63;21.80;;;;;;;;;;5058851;28;20510;-71
2024/01/18 08:17:48;;;;;;;46.80;22.83;;;;;;;;;;5076584;28;20436;-71
2024/01/18 08:20:15;;;;;;;45.63;22.83;;;;;;;;;;5057143;28;20425;-71
2024/01/18 08:22:42;;;;;;;50.47;23.23;;;;;;;;;;5075824;28;20457;-71
2024/01/18 08:25:12;;;;;;;48.50;23.33;;;;;;;;;;5057842;28;20835;-71
2024/01/18 08:27:39;;;;;;;48.63;24.67;;;;;;;;;;5058317;28;20503;-71
2024/01/18 08:30:06;;;;;;;50.80;25.97;;;;;;;;;;5058812;28;20423;-71
2024/01/18 08:32:34;;;;;;;46.27;23.13;;;;;;;;;;5075615;28;20548;-71
2024/01/18 08:35:01;;;;;;;45.23;23.23;;;;;;;;;;5057754;28;20479;-71
2024/01/18 08:37:28;;;;;;;41.37;22.43;;;;;;;;;;5075300;28;20420;-71
2024/01/18 08:39:55;;;;;;;39.93;21.60;;;;;;;;;;5041167;28;20421;-71
2024/01/18 08:42:21;;;;;;;34.77;20.30;;;;;;;;;;5074985;28;20775;-71
2024/01/18 08:44:48;;;;;;;31.33;18.23;;;;;;;;;;5073882;28;20432;-71
2024/01/18 08:47:15;;;;;;;40.13;20.73;;;;;;;;;;5075091;28;20197;-71
2024/01/18 08:49:46;;;;;;;34.57;19.10;;;;;;;;;;5074306;28;20178;-71
2024/01/18 08:52:13;;;;;;;32.63;18.13;;;;;;;;;;5075519;28;20197;-71
2024/01/18 08:54:43;;;;;;;35.73;16.80;;;;;;;;;;5057833;28;20197;-71
2024/01/18 08:57:10;;;;;;;29.93;16.60;;;;;;;;;;5075238;28;20201;-71
2024/01/18 08:59:37;;;;;;;30.47;15.93;;;;;;;;;;5075160;28;20186;-71
2024/01/18 09:02:03;;;;;;;32.83;16.73;;;;;;;;;;5057308;28;20656;-71
2024/01/18 09:04:43;;;;;;;33.17;15.73;;;;;;;;;;5074329;28;20162;-71
2024/01/18 09:07:13;;;;;;;31.40;14.77;;;;;;;;;;5075072;28;20745;-71
2024/01/18 09:09:41;;;;;;;26.97;13.57;;;;;;;;;;5057094;28;20447;-71
2024/01/18 09:12:08;;;;;;;28.17;13.30;;;;;;;;;;5040288;28;20919;-71
2024/01/18 09:14:35;;;;;;;21.80;11.90;;;;;;;;;;5056739;28;20439;-71
2024/01/18 09:17:02;;;;;;;22.53;12.27;;;;;;;;;;5074445;28;20435;-71
2024/01/18 09:19:30;;;;;;;18.03;9.93;;;;;;;;;;5075121;28;20422;-71
2024/01/18 09:21:57;;;;;;;23.80;11.53;;;;;;;;;;5074092;28;20511;-71
2024/01/18 09:24:24;;;;;;;19.40;9.97;;;;;;;;;;5040293;28;20440;-71
2024/01/18 09:26:51;;;;;;;19.80;9.80;;;;;;;;;;5074548;28;20432;-71
2024/01/18 09:29:18;;;;;;;19.30;9.93;;;;;;;;;;5074305;28;20513;-71
2024/01/18 09:31:45;;;;;;;17.53;9.07;;;;;;;;;;5072705;28;20440;-71
2024/01/18 09:34:12;;;;;;;20.80;9.43;;;;;;;;;;5073287;28;20417;-71
2024/01/18 09:36:39;;;;;;;16.73;8.73;;;;;;;;;;5074369;28;20431;-71
2024/01/18 09:39:08;;;;;;;16.03;8.43;;;;;;;;;;5057329;28;20915;-71
2024/01/18 09:41:35;;;;;;;16.67;8.53;;;;;;;;;;5039930;28;20443;-71
2024/01/18 09:44:05;;;;;;;16.83;9.00;;;;;;;;;;5074230;28;20426;-71
2024/01/18 09:46:32;;;;;;;17.03;9.70;;;;;;;;;;5039566;28;20436;-71
2024/01/18 09:48:59;;;;;;;20.53;9.40;;;;;;;;;;5056199;28;20498;-71
2024/01/18 09:51:31;;;;;;;17.67;9.70;;;;;;;;;;5056220;28;20433;-71
2024/01/18 09:54:00;;;;;;;24.07;9.57;;;;;;;;;;5057135;28;20836;-71
2024/01/18 09:56:45;;;;;;;18.47;9.30;;;;;;;;;;5041888;28;20851;-71
2024/01/18 09:59:15;;;;;;;20.73;9.43;;;;;;;;;;5056381;28;20188;-71
2024/01/18 10:01:42;;;;;;;15.83;8.10;;;;;;;;;;5056336;28;20473;-71
2024/01/18 10:04:10;;;;;;;16.30;8.37;;;;;;;;;;5072582;28;20436;-71
2024/01/18 10:06:38;;;;;;;17.23;8.73;;;;;;;;;;5055993;28;20435;-72
2024/01/18 10:09:22;;;;;;;16.47;8.40;;;;;;;;;;5058954;28;20467;-72
2024/01/18 10:11:49;;;;;;;20.17;10.10;;;;;;;;;;5056508;28;20430;-72
2024/01/18 10:14:16;;;;;;;18.17;9.20;;;;;;;;;;5055958;28;20511;-71
2024/01/18 10:16:42;;;;;;;18.57;8.10;;;;;;;;;;5073918;28;20428;-71
2024/01/18 10:19:17;;;;;;;17.77;8.50;;;;;;;;;;5056649;28;20522;-71
2024/01/18 10:21:44;;;;;;;17.10;8.47;;;;;;;;;;5056336;28;20264;-71
2024/01/18 10:24:12;;;;;;;13.27;7.43;;;;;;;;;;5039476;28;20190;-71
2024/01/18 10:26:40;;;;;;;13.00;7.43;;;;;;;;;;5039412;28;20186;-71
2024/01/18 10:29:09;;;;;;;16.03;7.30;;;;;;;;;;5056063;28;20508;-71
2024/01/18 10:31:41;;;;;;;13.77;7.03;;;;;;;;;;5055847;28;20435;-71
2024/01/18 10:34:25;;;;;;;15.57;6.50;;;;;;;;;;5042087;28;20404;-71
2024/01/18 10:36:52;;;;;;;14.67;6.57;;;;;;;;;;5073433;28;20473;-71
2024/01/18 10:39:20;;;;;;;12.80;5.53;;;;;;;;;;5056315;28;20931;-71
2024/01/18 10:41:46;;;;;;;16.07;6.10;;;;;;;;;;5055565;28;20421;-70
2024/01/18 10:44:14;;;;;;;12.73;5.27;;;;;;;;;;5075855;28;20985;-71
2024/01/18 10:46:42;;;;;;;14.07;6.47;;;;;;;;;;5076824;28;20413;-71
2024/01/18 10:49:09;;;;;;;13.57;6.63;;;;;;;;;;5059588;28;20431;-71
2024/01/18 10:51:39;;;;;;;13.90;7.27;;;;;;;;;;5059984;28;20424;-71
2024/01/18 10:54:07;;;;;;;14.50;6.43;;;;;;;;;;5076183;28;20428;-71
2024/01/18 10:56:47;;;;;;;14.70;6.67;;;;;;;;;;5059608;28;20420;-71
2024/01/18 10:59:13;;;;;;;16.80;6.33;;;;;;;;;;5059761;28;20431;-72
2024/01/18 11:01:40;;;;;;;18.37;6.80;;;;;;;;;;5043809;28;20436;-72
2024/01/18 11:04:07;;;;;;;13.83;6.57;;;;;;;;;;5059647;28;20217;-72
2024/01/18 11:06:34;;;;;;;13.47;6.30;;;;;;;;;;5076650;28;20551;-72
2024/01/18 11:09:00;;;;;;;17.17;7.50;;;;;;;;;;5059200;28;20194;-72
2024/01/18 11:11:27;;;;;;;14.07;6.63;;;;;;;;;;5076006;28;20200;-72
2024/01/18 11:14:11;;;;;;;14.07;6.03;;;;;;;;;;5058783;28;20206;-72
2024/01/18 11:16:38;;;;;;;9.93;5.33;;;;;;;;;;5077272;28;20182;-72
2024/01/18 11:19:38;;;;;;;10.37;5.50;;;;;;;;;;5059279;28;20162;-71
2024/01/18 11:22:07;;;;;;;10.63;5.80;;;;;;;;;;5060086;28;20182;-72
2024/01/18 11:24:51;;;;;;;9.60;5.33;;;;;;;;;;5061943;28;20610;-72
2024/01/18 11:27:25;;;;;;;16.40;6.37;;;;;;;;;;5059110;28;20182;-72
2024/01/18 11:30:28;;;;;;;11.77;6.00;;;;;;;;;;5059432;28;20679;-72
2024/01/18 11:32:55;;;;;;;11.00;5.67;;;;;;;;;;5076472;28;20212;-72
2024/01/18 11:35:23;;;;;;;16.13;9.00;;;;;;;;;;5058823;28;20185;-71
2024/01/18 11:37:50;;;;;;;15.13;8.60;;;;;;;;;;5058890;28;20182;-72
2024/01/18 11:40:17;;;;;;;7.93;4.40;;;;;;;;;;5075489;28;20182;-69
2024/01/18 11:42:45;;;;;;;13.13;5.00;;;;;;;;;;5059415;28;20649;-71
2024/01/18 11:45:18;;;;;;;11.97;5.83;;;;;;;;;;5059401;28;20188;-71
2024/01/18 11:47:45;;;;;;;9.57;5.23;;;;;;;;;;5042977;28;20190;-71
2024/01/18 11:50:12;;;;;;;11.10;4.70;;;;;;;;;;5076736;28;20213;-71
2024/01/18 11:52:41;;;;;;;9.80;5.03;;;;;;;;;;5058554;28;20197;-71
2024/01/18 11:55:08;;;;;;;12.60;6.10;;;;;;;;;;5032879;28;20193;-71
2024/01/18 11:57:34;;;;;;;8.57;4.60;;;;;;;;;;5058470;28;20194;-71
2024/01/18 12:00:02;;;;;;;10.77;4.43;;;;;;;;;;5076050;28;20182;-71
2024/01/18 12:02:36;;;;;;;7.80;4.13;;;;;;;;;;5059356;28;20270;-71
2024/01/18 12:05:04;;;;;;;11.10;4.07;;;;;;;;;;5041743;28;20186;-71
2024/01/18 12:07:32;;;;;;;8.00;4.23;;;;;;;;;;5058834;28;20193;-70
2024/01/18 12:09:59;;;;;;;8.07;5.10;;;;;;;;;;5041692;28;20202;-71
2024/01/18 12:12:26;;;;;;;11.17;4.37;;;;;;;;;;5074540;28;20250;-71
2024/01/18 12:14:53;;;;;;;10.90;3.53;;;;;;;;;;5041636;28;20182;-70
2024/01/18 12:17:20;;;;;;;10.00;4.63;;;;;;;;;;5058122;28;20533;-70
2024/01/18 12:19:47;;;;;;;9.90;4.07;;;;;;;;;;5057764;28;20280;-70
2024/01/18 12:22:18;;;;;;;9.03;3.83;;;;;;;;;;5058101;28;20232;-70
2024/01/18 12:24:48;;;;;;;12.00;4.27;;;;;;;;;;5075564;28;20617;-71
2024/01/18 12:27:15;;;;;;;8.77;4.30;;;;;;;;;;5042291;28;20748;-70
2024/01/18 12:29:43;;;;;;;8.67;3.90;;;;;;;;;;5057538;28;20194;-70
2024/01/18 12:32:10;;;;;;;9.10;4.30;;;;;;;;;;5057567;28;20979;-70
2024/01/18 12:34:57;;;;;;;9.80;4.30;;;;;;;;;;5060200;28;20442;-70
2024/01/18 12:37:24;;;;;;;9.53;4.07;;;;;;;;;;5041600;28;20385;-70
2024/01/18 12:40:09;;;;;;;10.93;3.57;;;;;;;;;;5074312;28;20397;-70
2024/01/18 12:42:36;;;;;;;10.13;3.80;;;;;;;;;;5057791;28;20202;-70
2024/01/18 12:45:03;;;;;;;8.57;4.03;;;;;;;;;;5057874;28;20232;-70
2024/01/18 12:47:34;;;;;;;13.80;4.40;;;;;;;;;;5057235;28;20213;-70
2024/01/18 12:50:00;;;;;;;9.60;4.13;;;;;;;;;;5058255;28;20436;-70
2024/01/18 12:52:31;;;;;;;7.70;3.20;;;;;;;;;;5057970;28;20529;-70
2024/01/18 12:54:58;;;;;;;8.07;3.47;;;;;;;;;;5057602;28;20428;-70
2024/01/18 12:57:29;;;;;;;10.20;3.20;;;;;;;;;;5075044;28;20420;-70
2024/01/18 12:59:56;;;;;;;10.40;4.80;;;;;;;;;;5075457;28;20451;-70
2024/01/18 13:02:23;;;;;;;10.33;3.43;;;;;;;;;;5057086;28;20988;-70
2024/01/18 13:04:50;;;;;;;11.13;4.33;;;;;;;;;;5057427;28;20914;-70
2024/01/18 13:07:34;;;;;;;9.20;4.20;;;;;;;;;;5057380;28;20427;-70
2024/01/18 13:10:01;;;;;;;8.47;4.43;;;;;;;;;;5056937;28;20420;-70
2024/01/18 13:12:29;;;;;;;9.10;3.77;;;;;;;;;;5074169;28;20448;-70
2024/01/18 13:14:56;;;;;;;7.73;3.67;;;;;;;;;;5075750;28;20429;-70
2024/01/18 13:17:24;;;;;;;9.20;3.33;;;;;;;;;;5057800;28;20420;-69
2024/01/18 13:19:53;;;;;;;8.50;3.73;;;;;;;;;;5056820;28;20417;-70
2024/01/18 13:22:20;;;;;;;9.73;3.43;;;;;;;;;;5043192;28;20455;-70
2024/01/18 13:24:47;;;;;;;9.53;4.20;;;;;;;;;;5056695;28;20757;-70
2024/01/18 13:27:14;;;;;;;8.33;3.90;;;;;;;;;;5056729;28;20531;-70
2024/01/18 13:29:41;;;;;;;8.43;3.70;;;;;;;;;;5040150;28;20967;-70
2024/01/18 13:32:08;;;;;;;9.63;3.90;;;;;;;;;;5048390;28;20470;-70
2024/01/18 13:34:52;;;;;;;13.20;4.33;;;;;;;;;;5059380;28;20407;-70
2024/01/18 13:37:19;;;;;;;15.17;4.90;;;;;;;;;;5073191;28;20475;-70
2024/01/18 13:40:08;;;;;;;9.33;4.47;;;;;;;;;;5074700;28;20396;-70
2024/01/18 13:42:35;;;;;;;13.70;4.30;;;;;;;;;;5041577;28;20788;-69
2024/01/18 13:45:04;;;;;;;10.47;4.03;;;;;;;;;;5056751;28;20525;-69
2024/01/18 13:47:35;;;;;;;7.80;3.03;;;;;;;;;;5057358;28;20398;-69
2024/01/18 13:50:03;;;;;;;7.60;3.13;;;;;;;;;;5040575;28;20525;-69
2024/01/18 13:52:30;;;;;;;9.90;3.27;;;;;;;;;;5039928;28;20493;-69
2024/01/18 13:54:56;;;;;;;8.70;3.40;;;;;;;;;;5074495;28;20766;-69
2024/01/18 13:57:25;;;;;;;10.13;3.73;;;;;;;;;;5074302;28;20434;-69
2024/01/18 13:59:54;;;;;;;9.03;3.37;;;;;;;;;;5040124;28;20489;-69
2024/01/18 14:02:21;;;;;;;12.73;5.00;;;;;;;;;;5089109;28;20489;-69
2024/01/18 14:04:48;;;;;;;16.70;5.47;;;;;;;;;;5043126;28;20462;-69
2024/01/18 14:07:15;;;;;;;17.13;6.00;;;;;;;;;;5093946;28;20423;-69
2024/01/18 14:09:44;;;;;;;16.17;6.57;;;;;;;;;;5076594;28;20439;-69
2024/01/18 14:12:12;;;;;;;21.70;8.10;;;;;;;;;;5057351;28;20442;-70
2024/01/18 14:14:39;;;;;;;20.47;7.23;;;;;;;;;;5040509;28;20754;-69
2024/01/18 14:17:06;;;;;;;18.63;8.23;;;;;;;;;;5051551;28;20449;-69
2024/01/18 14:19:34;;;;;;;16.80;7.50;;;;;;;;;;5052279;28;20442;-69
2024/01/18 14:22:01;;;;;;;13.00;5.67;;;;;;;;;;5036170;28;20784;-69
2024/01/18 14:24:30;;;;;;;16.90;6.63;;;;;;;;;;5035875;28;20942;-69
2024/01/18 14:26:57;;;;;;;16.37;6.83;;;;;;;;;;5019923;28;20437;-69
2024/01/18 14:29:24;;;;;;;19.70;7.43;;;;;;;;;;5052341;28;20416;-69
2024/01/18 14:31:51;;;;;;;20.80;8.10;;;;;;;;;;5035794;28;20441;-69
2024/01/18 14:34:35;;;;;;;16.87;7.53;;;;;;;;;;5054078;28;20709;-69
2024/01/18 14:37:02;;;;;;;20.33;8.20;;;;;;;;;;5053671;28;20449;-69
2024/01/18 14:39:46;;;;;;;16.13;6.70;;;;;;;;;;5038865;28;20461;-69
2024/01/18 14:42:15;;;;;;;17.93;7.13;;;;;;;;;;5053655;28;20417;-69
2024/01/18 14:44:42;;;;;;;16.40;6.73;;;;;;;;;;5053556;28;20468;-69
2024/01/18 14:47:10;;;;;;;13.63;6.63;;;;;;;;;;5035800;28;20445;-69
2024/01/18 14:49:37;;;;;;;14.63;6.80;;;;;;;;;;5035944;28;20472;-69
2024/01/18 14:52:10;;;;;;;12.03;6.33;;;;;;;;;;5052220;28;20445;-69
2024/01/18 14:54:37;;;;;;;17.47;6.90;;;;;;;;;;5035743;28;20445;-69
2024/01/18 14:57:04;;;;;;;14.47;7.20;;;;;;;;;;5002741;28;20448;-69
2024/01/18 14:59:33;;;;;;;17.27;7.20;;;;;;;;;;5036078;28;20526;-69
2024/01/18 15:02:01;;;;;;;14.63;6.90;;;;;;;;;;5035597;28;20900;-69
2024/01/18 15:04:29;;;;;;;15.07;7.07;;;;;;;;;;5035903;28;20796;-69
2024/01/18 15:06:57;;;;;;;16.67;6.80;;;;;;;;;;5053297;28;20488;-70
2024/01/18 15:09:24;;;;;;;14.57;6.53;;;;;;;;;;5019601;28;20487;-69
2024/01/18 15:11:52;;;;;;;17.60;7.07;;;;;;;;;;5053678;28;20425;-69
2024/01/18 15:14:19;;;;;;;20.00;7.83;;;;;;;;;;5055235;28;20669;-69
2024/01/18 15:16:46;;;;;;;23.67;9.50;;;;;;;;;;5055506;28;20825;-69
2024/01/18 15:19:14;;;;;;;17.40;7.70;;;;;;;;;;5073713;28;20529;-69